JZA8651 KPDX-CYVR
Flight info
| Callsign | JZA8651 |
|---|---|
| Flight time | 0h 48m |
| Altitude | 32000 |
| Route | DCT BTG J1 SEA DCT PAE GRIZZ9 |
| Aircraft | E75L/M-SDE3GILORVW/S |
Departure
| Time | 2026-05-08 02:49 |
|---|---|
| Airport | Portland International Airport (KPDX) |
Arrival
| Time | 2026-05-08 03:37 |
|---|---|
| Airport | Vancouver International Airport (CYVR) |
| Time | Latitude | Longitude | Altitude | Speed | Heading |
|---|---|---|---|---|---|
| 2026-05-08 02:27 | 45.58943 | -122.59894 | 15 ft | 0 kts | 42° |
| 2026-05-08 02:36 | 45.58934 | -122.59905 | 17 ft | 4 kts | 38° |
| 2026-05-08 02:37 | 45.58912 | -122.59927 | 18 ft | 4 kts | 28° |
| 2026-05-08 02:37 | 45.58888 | -122.59944 | 15 ft | 4 kts | 30° |
| 2026-05-08 02:37 | 45.58874 | -122.59957 | 17 ft | 3 kts | 43° |
| 2026-05-08 02:37 | 45.58861 | -122.59930 | 17 ft | 2 kts | 299° |
| 2026-05-08 02:38 | 45.58850 | -122.59905 | 16 ft | 4 kts | 301° |
| 2026-05-08 02:38 | 45.58846 | -122.59895 | 17 ft | 0 kts | 299° |
| 2026-05-08 02:41 | 45.58849 | -122.59902 | 16 ft | 2 kts | 299° |
| 2026-05-08 02:41 | 45.58860 | -122.59930 | 16 ft | 4 kts | 299° |
| 2026-05-08 02:41 | 45.58878 | -122.59977 | 17 ft | 6 kts | 299° |
| 2026-05-08 02:41 | 45.58903 | -122.60041 | 16 ft | 8 kts | 299° |
| 2026-05-08 02:42 | 45.58933 | -122.60116 | 17 ft | 9 kts | 300° |
| 2026-05-08 02:42 | 45.58946 | -122.60202 | 16 ft | 9 kts | 244° |
| 2026-05-08 02:42 | 45.58896 | -122.60218 | 17 ft | 8 kts | 146° |
| 2026-05-08 02:42 | 45.58865 | -122.60154 | 18 ft | 8 kts | 117° |
| 2026-05-08 02:43 | 45.58837 | -122.60078 | 19 ft | 9 kts | 117° |
| 2026-05-08 02:43 | 45.58804 | -122.59991 | 19 ft | 10 kts | 122° |
| 2026-05-08 02:43 | 45.58766 | -122.59899 | 19 ft | 11 kts | 120° |
| 2026-05-08 02:43 | 45.58726 | -122.59799 | 18 ft | 12 kts | 120° |
| 2026-05-08 02:44 | 45.58682 | -122.59687 | 18 ft | 14 kts | 119° |
| 2026-05-08 02:44 | 45.58635 | -122.59564 | 19 ft | 15 kts | 118° |
| 2026-05-08 02:44 | 45.58583 | -122.59434 | 17 ft | 15 kts | 118° |
| 2026-05-08 02:44 | 45.58529 | -122.59294 | 16 ft | 17 kts | 119° |
| 2026-05-08 02:45 | 45.58472 | -122.59148 | 17 ft | 18 kts | 119° |
| 2026-05-08 02:45 | 45.58411 | -122.58989 | 16 ft | 18 kts | 118° |
| 2026-05-08 02:45 | 45.58350 | -122.58828 | 18 ft | 19 kts | 118° |
| 2026-05-08 02:45 | 45.58285 | -122.58662 | 17 ft | 19 kts | 121° |
| 2026-05-08 02:46 | 45.58217 | -122.58495 | 18 ft | 20 kts | 119° |
| 2026-05-08 02:46 | 45.58165 | -122.58377 | 16 ft | 10 kts | 137° |
| 2026-05-08 02:46 | 45.58122 | -122.58369 | 18 ft | 6 kts | 198° |
| 2026-05-08 02:46 | 45.58093 | -122.58384 | 20 ft | 3 kts | 199° |
| 2026-05-08 02:47 | 45.58078 | -122.58394 | 21 ft | 2 kts | 208° |
| 2026-05-08 02:47 | 45.58070 | -122.58405 | 21 ft | 1 kts | 238° |
| 2026-05-08 02:47 | 45.58070 | -122.58406 | 20 ft | 0 kts | 242° |
| 2026-05-08 02:47 | 45.58067 | -122.58420 | 20 ft | 3 kts | 269° |
| 2026-05-08 02:48 | 45.58090 | -122.58476 | 20 ft | 16 kts | 299° |
| 2026-05-08 02:48 | 45.58247 | -122.58885 | 23 ft | 81 kts | 300° |
| 2026-05-08 02:48 | 45.58629 | -122.59864 | 25 ft | 141 kts | 299° |
| 2026-05-08 02:48 | 45.59170 | -122.61285 | 141 ft | 182 kts | 298° |
| 2026-05-08 02:49 | 45.59765 | -122.62887 | 919 ft | 179 kts | 301° |
| 2026-05-08 02:49 | 45.60419 | -122.64288 | 1896 ft | 165 kts | 308° |
| 2026-05-08 02:49 | 45.61325 | -122.65392 | 2240 ft | 188 kts | 341° |
| 2026-05-08 02:49 | 45.62721 | -122.65283 | 2462 ft | 223 kts | 26° |
| 2026-05-08 02:50 | 45.64026 | -122.63993 | 3243 ft | 230 kts | 37° |
| 2026-05-08 02:50 | 45.65395 | -122.62675 | 3783 ft | 253 kts | 27° |
| 2026-05-08 02:50 | 45.67136 | -122.61703 | 4089 ft | 280 kts | 13° |
| 2026-05-08 02:50 | 45.69066 | -122.61191 | 4974 ft | 282 kts | 6° |
| 2026-05-08 02:51 | 45.70985 | -122.60791 | 5911 ft | 282 kts | 8° |
| 2026-05-08 02:51 | 45.72901 | -122.60209 | 6804 ft | 282 kts | 13° |
| 2026-05-08 02:51 | 45.74782 | -122.59398 | 7624 ft | 284 kts | 15° |
| 2026-05-08 02:51 | 45.76699 | -122.58678 | 8351 ft | 286 kts | 10° |
| 2026-05-08 02:52 | 45.78672 | -122.58241 | 9059 ft | 289 kts | 4° |
| 2026-05-08 02:52 | 45.80689 | -122.58029 | 9741 ft | 291 kts | 2° |
| 2026-05-08 02:52 | 45.82726 | -122.57856 | 10231 ft | 300 kts | 2° |
| 2026-05-08 02:52 | 45.84886 | -122.57596 | 10242 ft | 324 kts | 4° |
| 2026-05-08 02:53 | 45.87195 | -122.57216 | 10299 ft | 344 kts | 6° |
| 2026-05-08 02:53 | 45.89590 | -122.56769 | 10818 ft | 346 kts | 6° |
| 2026-05-08 02:53 | 45.91978 | -122.56336 | 11489 ft | 345 kts | 5° |
| 2026-05-08 02:53 | 45.94330 | -122.55945 | 12101 ft | 346 kts | 4° |
| 2026-05-08 02:54 | 45.96730 | -122.55572 | 12655 ft | 349 kts | 4° |
| 2026-05-08 02:54 | 45.99157 | -122.55208 | 13167 ft | 353 kts | 4° |
| 2026-05-08 02:54 | 46.01613 | -122.54833 | 13747 ft | 356 kts | 4° |
| 2026-05-08 02:54 | 46.04082 | -122.54420 | 14303 ft | 360 kts | 5° |
| 2026-05-08 02:55 | 46.06588 | -122.53990 | 14898 ft | 363 kts | 5° |
| 2026-05-08 02:55 | 46.11653 | -122.53154 | 16021 ft | 369 kts | 4° |
| 2026-05-08 02:55 | 46.14216 | -122.52746 | 16561 ft | 372 kts | 4° |
| 2026-05-08 02:56 | 46.16796 | -122.52327 | 17040 ft | 375 kts | 4° |
| 2026-05-08 02:56 | 46.19399 | -122.51916 | 17542 ft | 378 kts | 4° |
| 2026-05-08 02:56 | 46.22023 | -122.51488 | 18058 ft | 381 kts | 4° |
| 2026-05-08 02:56 | 46.24668 | -122.51053 | 18559 ft | 384 kts | 4° |
| 2026-05-08 02:57 | 46.27333 | -122.50611 | 19067 ft | 387 kts | 4° |
| 2026-05-08 02:57 | 46.29978 | -122.50177 | 19581 ft | 389 kts | 4° |
| 2026-05-08 02:57 | 46.32671 | -122.49737 | 20085 ft | 392 kts | 4° |
| 2026-05-08 02:57 | 46.35401 | -122.49291 | 20605 ft | 395 kts | 4° |
| 2026-05-08 02:58 | 46.38142 | -122.48842 | 21098 ft | 398 kts | 4° |
| 2026-05-08 02:58 | 46.40903 | -122.48390 | 21594 ft | 400 kts | 3° |
| 2026-05-08 02:58 | 46.43681 | -122.47940 | 22018 ft | 404 kts | 3° |
| 2026-05-08 02:58 | 46.46481 | -122.47482 | 22472 ft | 406 kts | 3° |
| 2026-05-08 02:59 | 46.49296 | -122.47021 | 22906 ft | 408 kts | 3° |
| 2026-05-08 02:59 | 46.52113 | -122.46559 | 23326 ft | 411 kts | 3° |
| 2026-05-08 02:59 | 46.54957 | -122.46092 | 23721 ft | 413 kts | 3° |
| 2026-05-08 02:59 | 46.57828 | -122.45618 | 24090 ft | 416 kts | 2° |
| 2026-05-08 03:00 | 46.60665 | -122.45631 | 24412 ft | 412 kts | 348° |
| 2026-05-08 03:00 | 46.63499 | -122.46478 | 24848 ft | 410 kts | 343° |
| 2026-05-08 03:00 | 46.66246 | -122.47440 | 25207 ft | 413 kts | 343° |
| 2026-05-08 03:00 | 46.69039 | -122.48430 | 25598 ft | 414 kts | 343° |
| 2026-05-08 03:01 | 46.71826 | -122.49412 | 26157 ft | 411 kts | 343° |
| 2026-05-08 03:01 | 46.74623 | -122.50385 | 26633 ft | 410 kts | 343° |
| 2026-05-08 03:01 | 46.77393 | -122.51342 | 27097 ft | 408 kts | 343° |
| 2026-05-08 03:01 | 46.80149 | -122.52289 | 27631 ft | 405 kts | 343° |
| 2026-05-08 03:02 | 46.82888 | -122.53211 | 28090 ft | 404 kts | 343° |
| 2026-05-08 03:02 | 46.85620 | -122.54129 | 28512 ft | 402 kts | 343° |
| 2026-05-08 03:02 | 46.88349 | -122.55038 | 28963 ft | 401 kts | 343° |
| 2026-05-08 03:02 | 46.91061 | -122.55934 | 29374 ft | 400 kts | 343° |
| 2026-05-08 03:03 | 46.93769 | -122.56822 | 29793 ft | 398 kts | 343° |
| 2026-05-08 03:03 | 46.96433 | -122.57690 | 30176 ft | 397 kts | 343° |
| 2026-05-08 03:03 | 46.99120 | -122.58560 | 30588 ft | 395 kts | 343° |
| 2026-05-08 03:03 | 47.01801 | -122.59421 | 30972 ft | 394 kts | 343° |
| 2026-05-08 03:04 | 47.04480 | -122.60273 | 31331 ft | 393 kts | 343° |
| 2026-05-08 03:04 | 47.07145 | -122.61114 | 31670 ft | 392 kts | 343° |
| 2026-05-08 03:04 | 47.09809 | -122.61953 | 32025 ft | 390 kts | 343° |
| 2026-05-08 03:04 | 47.12465 | -122.62776 | 32227 ft | 392 kts | 343° |
| 2026-05-08 03:05 | 47.15134 | -122.63598 | 32198 ft | 391 kts | 343° |
| 2026-05-08 03:05 | 47.20457 | -122.65224 | 32079 ft | 389 kts | 343° |
| 2026-05-08 03:06 | 47.25711 | -122.66817 | 32101 ft | 390 kts | 343° |
| 2026-05-08 03:06 | 47.28436 | -122.67161 | 32127 ft | 398 kts | 356° |
| 2026-05-08 03:06 | 47.31213 | -122.66917 | 32097 ft | 402 kts | 358° |
| 2026-05-08 03:06 | 47.34009 | -122.66597 | 31791 ft | 403 kts | 359° |
| 2026-05-08 03:07 | 47.36804 | -122.66225 | 31531 ft | 401 kts | 360° |
| 2026-05-08 03:07 | 47.39514 | -122.65858 | 31285 ft | 399 kts | 360° |
| 2026-05-08 03:07 | 47.42289 | -122.65505 | 31073 ft | 400 kts | 359° |
| 2026-05-08 03:07 | 47.45063 | -122.65182 | 30866 ft | 401 kts | 359° |
| 2026-05-08 03:08 | 47.47704 | -122.64880 | 30846 ft | 386 kts | 359° |
| 2026-05-08 03:08 | 47.50317 | -122.64577 | 30547 ft | 377 kts | 359° |
| 2026-05-08 03:08 | 47.52928 | -122.64268 | 30018 ft | 375 kts | 359° |
| 2026-05-08 03:08 | 47.55536 | -122.63950 | 29261 ft | 379 kts | 359° |
| 2026-05-08 03:09 | 47.57835 | -122.63664 | 28451 ft | 386 kts | 360° |
| 2026-05-08 03:09 | 47.60552 | -122.63318 | 27295 ft | 398 kts | 0° |
| 2026-05-08 03:09 | 47.63350 | -122.62959 | 26076 ft | 411 kts | 0° |
| 2026-05-08 03:09 | 47.66236 | -122.62594 | 24865 ft | 421 kts | 1° |
| 2026-05-08 03:10 | 47.68826 | -122.62271 | 23873 ft | 427 kts | 1° |
| 2026-05-08 03:10 | 47.71787 | -122.61907 | 22956 ft | 427 kts | 1° |
| 2026-05-08 03:10 | 47.74717 | -122.61552 | 22536 ft | 416 kts | 1° |
| 2026-05-08 03:10 | 47.77564 | -122.61212 | 22100 ft | 406 kts | 1° |
| 2026-05-08 03:11 | 47.80353 | -122.60892 | 21406 ft | 402 kts | 1° |
| 2026-05-08 03:11 | 47.83098 | -122.60574 | 20739 ft | 399 kts | 1° |
| 2026-05-08 03:11 | 47.85851 | -122.60250 | 20064 ft | 396 kts | 1° |
| 2026-05-08 03:11 | 47.88581 | -122.59928 | 19388 ft | 393 kts | 1° |
| 2026-05-08 03:12 | 47.91301 | -122.59609 | 18817 ft | 388 kts | 2° |
| 2026-05-08 03:12 | 47.93957 | -122.59297 | 18552 ft | 383 kts | 2° |
| 2026-05-08 03:12 | 47.96643 | -122.58994 | 18305 ft | 389 kts | 2° |
| 2026-05-08 03:12 | 47.99335 | -122.58689 | 18051 ft | 389 kts | 2° |
| 2026-05-08 03:13 | 48.02032 | -122.58381 | 17818 ft | 387 kts | 2° |
| 2026-05-08 03:13 | 48.04698 | -122.58074 | 17550 ft | 385 kts | 2° |
| 2026-05-08 03:13 | 48.07371 | -122.57767 | 17301 ft | 383 kts | 2° |
| 2026-05-08 03:13 | 48.10026 | -122.57461 | 17050 ft | 382 kts | 2° |
| 2026-05-08 03:14 | 48.12635 | -122.57163 | 16803 ft | 380 kts | 2° |
| 2026-05-08 03:14 | 48.15263 | -122.56862 | 16553 ft | 378 kts | 2° |
| 2026-05-08 03:14 | 48.17915 | -122.56559 | 16299 ft | 377 kts | 2° |
| 2026-05-08 03:14 | 48.20490 | -122.56264 | 16052 ft | 375 kts | 2° |
| 2026-05-08 03:15 | 48.23078 | -122.55968 | 15802 ft | 373 kts | 2° |
| 2026-05-08 03:15 | 48.25667 | -122.55672 | 15545 ft | 372 kts | 2° |
| 2026-05-08 03:15 | 48.28237 | -122.55379 | 15303 ft | 370 kts | 3° |
| 2026-05-08 03:15 | 48.30809 | -122.55084 | 15056 ft | 369 kts | 3° |
| 2026-05-08 03:16 | 48.33317 | -122.54797 | 14801 ft | 355 kts | 3° |
| 2026-05-08 03:16 | 48.35747 | -122.54519 | 14549 ft | 343 kts | 3° |
| 2026-05-08 03:16 | 48.38086 | -122.54252 | 14298 ft | 333 kts | 3° |
| 2026-05-08 03:16 | 48.40356 | -122.53994 | 14051 ft | 323 kts | 3° |
| 2026-05-08 03:17 | 48.42575 | -122.53742 | 13791 ft | 315 kts | 3° |
| 2026-05-08 03:17 | 48.44728 | -122.53497 | 13546 ft | 307 kts | 3° |
| 2026-05-08 03:17 | 48.46855 | -122.53257 | 13293 ft | 305 kts | 3° |
| 2026-05-08 03:17 | 48.48977 | -122.53018 | 13057 ft | 308 kts | 3° |
| 2026-05-08 03:18 | 48.51093 | -122.52779 | 12803 ft | 309 kts | 3° |
| 2026-05-08 03:18 | 48.53228 | -122.52534 | 12553 ft | 307 kts | 3° |
| 2026-05-08 03:18 | 48.55358 | -122.52290 | 12298 ft | 305 kts | 3° |
| 2026-05-08 03:18 | 48.57464 | -122.52054 | 12051 ft | 303 kts | 3° |
| 2026-05-08 03:19 | 48.59564 | -122.51819 | 11801 ft | 302 kts | 3° |
| 2026-05-08 03:19 | 48.61654 | -122.51583 | 11551 ft | 301 kts | 3° |
| 2026-05-08 03:19 | 48.63746 | -122.51343 | 11301 ft | 300 kts | 3° |
| 2026-05-08 03:19 | 48.65818 | -122.51110 | 11056 ft | 299 kts | 3° |
| 2026-05-08 03:20 | 48.67886 | -122.50880 | 10800 ft | 297 kts | 4° |
| 2026-05-08 03:20 | 48.69947 | -122.50799 | 10531 ft | 295 kts | 350° |
| 2026-05-08 03:20 | 48.71786 | -122.52024 | 10312 ft | 291 kts | 319° |
| 2026-05-08 03:20 | 48.73151 | -122.54290 | 10046 ft | 291 kts | 306° |
| 2026-05-08 03:21 | 48.74256 | -122.56840 | 9805 ft | 289 kts | 301° |
| 2026-05-08 03:21 | 48.75304 | -122.59386 | 9547 ft | 288 kts | 303° |
| 2026-05-08 03:21 | 48.76470 | -122.61890 | 9292 ft | 287 kts | 307° |
| 2026-05-08 03:21 | 48.77702 | -122.64213 | 9045 ft | 286 kts | 309° |
| 2026-05-08 03:22 | 48.78980 | -122.66507 | 8795 ft | 285 kts | 309° |
| 2026-05-08 03:22 | 48.80238 | -122.68812 | 8539 ft | 284 kts | 308° |
| 2026-05-08 03:22 | 48.81465 | -122.71159 | 8294 ft | 283 kts | 307° |
| 2026-05-08 03:22 | 48.82661 | -122.73512 | 8034 ft | 282 kts | 307° |
| 2026-05-08 03:23 | 48.83846 | -122.75854 | 8002 ft | 275 kts | 307° |
| 2026-05-08 03:23 | 48.85028 | -122.78165 | 8062 ft | 281 kts | 307° |
| 2026-05-08 03:23 | 48.86245 | -122.80522 | 8008 ft | 284 kts | 307° |
| 2026-05-08 03:23 | 48.87455 | -122.82860 | 7994 ft | 281 kts | 308° |
| 2026-05-08 03:24 | 48.88649 | -122.85171 | 8000 ft | 282 kts | 307° |
| 2026-05-08 03:24 | 48.89851 | -122.87508 | 8021 ft | 278 kts | 307° |
| 2026-05-08 03:24 | 48.91023 | -122.89791 | 7818 ft | 271 kts | 307° |
| 2026-05-08 03:24 | 48.92174 | -122.92031 | 7575 ft | 267 kts | 308° |
| 2026-05-08 03:25 | 48.93284 | -122.94207 | 7562 ft | 253 kts | 307° |
| 2026-05-08 03:25 | 48.94343 | -122.96322 | 7510 ft | 256 kts | 307° |
| 2026-05-08 03:25 | 48.95449 | -122.98534 | 7122 ft | 265 kts | 309° |
| 2026-05-08 03:25 | 48.96909 | -123.00187 | 6644 ft | 266 kts | 341° |
| 2026-05-08 03:26 | 48.98714 | -123.00273 | 6352 ft | 259 kts | 17° |
| 2026-05-08 03:26 | 49.00228 | -122.98897 | 6061 ft | 253 kts | 39° |
| 2026-05-08 03:26 | 49.01569 | -122.97139 | 5661 ft | 257 kts | 41° |
| 2026-05-08 03:26 | 49.02927 | -122.95377 | 5353 ft | 253 kts | 38° |
| 2026-05-08 03:27 | 49.04316 | -122.93780 | 5239 ft | 250 kts | 35° |
| 2026-05-08 03:27 | 49.05752 | -122.92218 | 5090 ft | 256 kts | 35° |
| 2026-05-08 03:27 | 49.07038 | -122.90403 | 4782 ft | 256 kts | 59° |
| 2026-05-08 03:27 | 49.07515 | -122.87872 | 4827 ft | 243 kts | 88° |
| 2026-05-08 03:28 | 49.07541 | -122.85313 | 4850 ft | 248 kts | 90° |
| 2026-05-08 03:28 | 49.07510 | -122.82746 | 4678 ft | 234 kts | 92° |
| 2026-05-08 03:28 | 49.07454 | -122.80341 | 4482 ft | 220 kts | 92° |
| 2026-05-08 03:28 | 49.07409 | -122.78079 | 4320 ft | 207 kts | 92° |
| 2026-05-08 03:29 | 49.07489 | -122.75955 | 4258 ft | 198 kts | 69° |
| 2026-05-08 03:29 | 49.08349 | -122.74368 | 4303 ft | 200 kts | 28° |
| 2026-05-08 03:29 | 49.09706 | -122.73898 | 4236 ft | 204 kts | 2° |
| 2026-05-08 03:29 | 49.11130 | -122.73756 | 3956 ft | 204 kts | 3° |
| 2026-05-08 03:30 | 49.13794 | -122.73952 | 4040 ft | 199 kts | 328° |
| 2026-05-08 03:30 | 49.14870 | -122.76946 | 4126 ft | 198 kts | 294° |
| 2026-05-08 03:31 | 49.16051 | -122.80700 | 3837 ft | 189 kts | 273° |
| 2026-05-08 03:31 | 49.16382 | -122.84324 | 4385 ft | 162 kts | 282° |
| 2026-05-08 03:32 | 49.16601 | -122.86075 | 4080 ft | 178 kts | 278° |
| 2026-05-08 03:32 | 49.16801 | -122.87942 | 3728 ft | 176 kts | 279° |
| 2026-05-08 03:32 | 49.17014 | -122.89719 | 3451 ft | 168 kts | 280° |
| 2026-05-08 03:32 | 49.17219 | -122.91463 | 3189 ft | 159 kts | 279° |
| 2026-05-08 03:33 | 49.17405 | -122.93079 | 2953 ft | 151 kts | 279° |
| 2026-05-08 03:33 | 49.17585 | -122.94601 | 2757 ft | 143 kts | 279° |
| 2026-05-08 03:33 | 49.17757 | -122.96091 | 2579 ft | 142 kts | 279° |
| 2026-05-08 03:33 | 49.17932 | -122.97593 | 2406 ft | 146 kts | 278° |
| 2026-05-08 03:34 | 49.18111 | -122.99133 | 2206 ft | 147 kts | 278° |
| 2026-05-08 03:34 | 49.18288 | -123.00661 | 2004 ft | 145 kts | 278° |
| 2026-05-08 03:34 | 49.18463 | -123.02170 | 1813 ft | 143 kts | 277° |
| 2026-05-08 03:34 | 49.18639 | -123.03673 | 1640 ft | 143 kts | 277° |
| 2026-05-08 03:35 | 49.18810 | -123.05138 | 1452 ft | 139 kts | 277° |
| 2026-05-08 03:35 | 49.18984 | -123.06565 | 1268 ft | 132 kts | 277° |
| 2026-05-08 03:35 | 49.19145 | -123.07940 | 1111 ft | 132 kts | 276° |
| 2026-05-08 03:35 | 49.19283 | -123.09322 | 987 ft | 133 kts | 276° |
| 2026-05-08 03:36 | 49.19452 | -123.10742 | 813 ft | 135 kts | 277° |
| 2026-05-08 03:36 | 49.19605 | -123.12130 | 637 ft | 134 kts | 276° |
| 2026-05-08 03:36 | 49.19782 | -123.13517 | 418 ft | 132 kts | 276° |
| 2026-05-08 03:36 | 49.19928 | -123.14897 | 237 ft | 130 kts | 276° |
| 2026-05-08 03:37 | 49.20080 | -123.16261 | 69 ft | 130 kts | 278° |
| 2026-05-08 03:37 | 49.20224 | -123.17560 | 23 ft | 112 kts | 281° |
| 2026-05-08 03:37 | 49.20342 | -123.18532 | 22 ft | 73 kts | 281° |
| 2026-05-08 03:37 | 49.20386 | -123.19124 | 23 ft | 38 kts | 262° |
| 2026-05-08 03:38 | 49.20347 | -123.19371 | 23 ft | 14 kts | 257° |
| 2026-05-08 03:38 | 49.20318 | -123.19509 | 24 ft | 14 kts | 248° |
| 2026-05-08 03:38 | 49.20282 | -123.19614 | 23 ft | 5 kts | 201° |
| 2026-05-08 03:38 | 49.20258 | -123.19599 | 25 ft | 4 kts | 139° |
| 2026-05-08 03:39 | 49.20243 | -123.19551 | 24 ft | 6 kts | 101° |
| 2026-05-08 03:39 | 49.20234 | -123.19483 | 23 ft | 7 kts | 101° |
| 2026-05-08 03:39 | 49.20226 | -123.19398 | 23 ft | 9 kts | 98° |
| 2026-05-08 03:39 | 49.20212 | -123.19298 | 24 ft | 10 kts | 102° |
| 2026-05-08 03:40 | 49.20203 | -123.19188 | 22 ft | 11 kts | 97° |
| 2026-05-08 03:40 | 49.20189 | -123.19078 | 22 ft | 11 kts | 100° |
| 2026-05-08 03:40 | 49.20172 | -123.18960 | 24 ft | 12 kts | 102° |
| 2026-05-08 03:40 | 49.20161 | -123.18828 | 22 ft | 13 kts | 107° |
| 2026-05-08 03:41 | 49.20089 | -123.18782 | 22 ft | 13 kts | 194° |
| 2026-05-08 03:41 | 49.20000 | -123.18805 | 25 ft | 13 kts | 189° |
| 2026-05-08 03:41 | 49.19905 | -123.18830 | 24 ft | 15 kts | 189° |
| 2026-05-08 03:41 | 49.19804 | -123.18853 | 22 ft | 13 kts | 175° |
| 2026-05-08 03:42 | 49.19754 | -123.18744 | 22 ft | 14 kts | 99° |
| 2026-05-08 03:42 | 49.19722 | -123.18625 | 22 ft | 10 kts | 169° |
| 2026-05-08 03:42 | 49.19657 | -123.18593 | 22 ft | 9 kts | 150° |
| 2026-05-08 03:42 | 49.19628 | -123.18569 | 22 ft | 0 kts | 151° |
| 2026-05-08 03:51 | 49.19628 | -123.18570 | 23 ft | 0 kts | 152° |